sensor_id;sensor_type;location;lat;lon;timestamp;P1;durP1;ratioP1;P2;durP2;ratioP2
52838;SDS011;39219;53.678;9.856;2022-08-21T00:00:04;7.13;;;3.85;;
52838;SDS011;39219;53.678;9.856;2022-08-21T00:02:32;7.00;;;3.53;;
52838;SDS011;39219;53.678;9.856;2022-08-21T00:04:58;9.80;;;4.45;;
52838;SDS011;39219;53.678;9.856;2022-08-21T00:07:25;5.45;;;3.75;;
52838;SDS011;39219;53.678;9.856;2022-08-21T00:09:53;6.38;;;3.92;;
52838;SDS011;39219;53.678;9.856;2022-08-21T00:12:20;8.20;;;4.00;;
52838;SDS011;39219;53.678;9.856;2022-08-21T00:14:49;8.10;;;3.90;;
52838;SDS011;39219;53.678;9.856;2022-08-21T00:17:16;8.00;;;3.85;;
52838;SDS011;39219;53.678;9.856;2022-08-21T00:19:42;9.00;;;4.15;;
52838;SDS011;39219;53.678;9.856;2022-08-21T00:22:09;8.55;;;4.60;;
52838;SDS011;39219;53.678;9.856;2022-08-21T00:24:36;8.80;;;4.40;;
52838;SDS011;39219;53.678;9.856;2022-08-21T00:27:04;11.15;;;3.95;;
52838;SDS011;39219;53.678;9.856;2022-08-21T00:29:30;6.63;;;4.18;;
52838;SDS011;39219;53.678;9.856;2022-08-21T00:31:57;6.88;;;4.20;;
52838;SDS011;39219;53.678;9.856;2022-08-21T00:34:23;8.02;;;4.70;;
52838;SDS011;39219;53.678;9.856;2022-08-21T00:36:50;9.30;;;4.40;;
52838;SDS011;39219;53.678;9.856;2022-08-21T00:39:16;6.60;;;4.10;;
52838;SDS011;39219;53.678;9.856;2022-08-21T00:41:43;9.88;;;4.10;;
52838;SDS011;39219;53.678;9.856;2022-08-21T00:44:11;9.73;;;4.40;;
52838;SDS011;39219;53.678;9.856;2022-08-21T00:46:40;6.78;;;3.50;;
52838;SDS011;39219;53.678;9.856;2022-08-21T00:49:08;7.60;;;4.00;;
52838;SDS011;39219;53.678;9.856;2022-08-21T00:51:38;6.10;;;3.95;;
52838;SDS011;39219;53.678;9.856;2022-08-21T00:54:08;5.00;;;3.42;;
52838;SDS011;39219;53.678;9.856;2022-08-21T00:56:39;8.60;;;3.83;;
52838;SDS011;39219;53.678;9.856;2022-08-21T00:59:06;6.82;;;3.90;;
52838;SDS011;39219;53.678;9.856;2022-08-21T01:01:34;7.88;;;3.70;;
52838;SDS011;39219;53.678;9.856;2022-08-21T01:04:01;7.10;;;3.90;;
52838;SDS011;39219;53.678;9.856;2022-08-21T01:06:28;6.82;;;3.80;;
52838;SDS011;39219;53.678;9.856;2022-08-21T01:08:55;6.15;;;3.53;;
52838;SDS011;39219;53.678;9.856;2022-08-21T01:11:21;5.95;;;3.55;;
52838;SDS011;39219;53.678;9.856;2022-08-21T01:13:48;5.15;;;3.58;;
52838;SDS011;39219;53.678;9.856;2022-08-21T01:16:17;6.63;;;3.70;;
52838;SDS011;39219;53.678;9.856;2022-08-21T01:18:47;8.57;;;4.15;;
52838;SDS011;39219;53.678;9.856;2022-08-21T01:21:17;8.68;;;3.88;;
52838;SDS011;39219;53.678;9.856;2022-08-21T01:23:46;6.65;;;3.95;;
52838;SDS011;39219;53.678;9.856;2022-08-21T01:26:16;6.10;;;3.70;;
52838;SDS011;39219;53.678;9.856;2022-08-21T01:28:45;6.10;;;3.80;;
52838;SDS011;39219;53.678;9.856;2022-08-21T01:31:15;6.20;;;3.72;;
52838;SDS011;39219;53.678;9.856;2022-08-21T01:33:46;5.80;;;3.53;;
52838;SDS011;39219;53.678;9.856;2022-08-21T01:36:12;6.38;;;3.83;;
52838;SDS011;39219;53.678;9.856;2022-08-21T01:38:40;5.05;;;3.58;;
52838;SDS011;39219;53.678;9.856;2022-08-21T01:41:06;5.55;;;3.50;;
52838;SDS011;39219;53.678;9.856;2022-08-21T01:43:33;6.00;;;3.80;;
52838;SDS011;39219;53.678;9.856;2022-08-21T01:46:00;5.18;;;3.85;;
52838;SDS011;39219;53.678;9.856;2022-08-21T01:48:28;6.88;;;3.90;;
52838;SDS011;39219;53.678;9.856;2022-08-21T01:50:54;8.07;;;3.97;;
52838;SDS011;39219;53.678;9.856;2022-08-21T01:53:21;7.60;;;4.40;;
52838;SDS011;39219;53.678;9.856;2022-08-21T01:55:48;7.20;;;4.20;;
52838;SDS011;39219;53.678;9.856;2022-08-21T01:58:15;7.68;;;4.18;;
52838;SDS011;39219;53.678;9.856;2022-08-21T02:00:42;5.75;;;3.97;;
52838;SDS011;39219;53.678;9.856;2022-08-21T02:03:08;8.52;;;4.28;;
52838;SDS011;39219;53.678;9.856;2022-08-21T02:05:35;7.25;;;4.30;;
52838;SDS011;39219;53.678;9.856;2022-08-21T02:08:01;7.18;;;3.95;;
52838;SDS011;39219;53.678;9.856;2022-08-21T02:10:29;6.03;;;4.13;;
52838;SDS011;39219;53.678;9.856;2022-08-21T02:12:59;6.40;;;4.03;;
52838;SDS011;39219;53.678;9.856;2022-08-21T02:15:26;7.00;;;4.57;;
52838;SDS011;39219;53.678;9.856;2022-08-21T02:17:54;7.68;;;4.43;;
52838;SDS011;39219;53.678;9.856;2022-08-21T02:20:23;7.70;;;4.55;;
52838;SDS011;39219;53.678;9.856;2022-08-21T02:22:51;8.88;;;4.85;;
52838;SDS011;39219;53.678;9.856;2022-08-21T02:25:19;7.63;;;4.18;;
52838;SDS011;39219;53.678;9.856;2022-08-21T02:27:47;6.97;;;4.13;;
52838;SDS011;39219;53.678;9.856;2022-08-21T02:30:16;9.05;;;4.45;;
52838;SDS011;39219;53.678;9.856;2022-08-21T02:32:44;7.50;;;4.03;;
52838;SDS011;39219;53.678;9.856;2022-08-21T02:35:11;6.45;;;4.22;;
52838;SDS011;39219;53.678;9.856;2022-08-21T02:37:48;6.00;;;3.92;;
52838;SDS011;39219;53.678;9.856;2022-08-21T02:40:17;6.45;;;3.80;;
52838;SDS011;39219;53.678;9.856;2022-08-21T02:42:45;6.00;;;3.90;;
52838;SDS011;39219;53.678;9.856;2022-08-21T02:45:12;7.10;;;3.95;;
52838;SDS011;39219;53.678;9.856;2022-08-21T02:47:42;9.20;;;4.03;;
52838;SDS011;39219;53.678;9.856;2022-08-21T02:50:13;6.63;;;3.60;;
52838;SDS011;39219;53.678;9.856;2022-08-21T02:52:44;4.95;;;3.63;;
52838;SDS011;39219;53.678;9.856;2022-08-21T02:55:11;4.97;;;3.50;;
52838;SDS011;39219;53.678;9.856;2022-08-21T02:57:37;6.20;;;3.83;;
52838;SDS011;39219;53.678;9.856;2022-08-21T03:00:04;7.85;;;3.67;;
52838;SDS011;39219;53.678;9.856;2022-08-21T03:02:33;7.18;;;3.92;;
52838;SDS011;39219;53.678;9.856;2022-08-21T03:05:01;8.15;;;4.10;;
52838;SDS011;39219;53.678;9.856;2022-08-21T03:07:28;8.63;;;3.53;;
52838;SDS011;39219;53.678;9.856;2022-08-21T03:09:55;6.15;;;3.80;;
52838;SDS011;39219;53.678;9.856;2022-08-21T03:12:21;6.55;;;3.58;;
52838;SDS011;39219;53.678;9.856;2022-08-21T03:14:48;8.35;;;3.63;;
52838;SDS011;39219;53.678;9.856;2022-08-21T03:17:14;5.85;;;3.63;;
52838;SDS011;39219;53.678;9.856;2022-08-21T03:19:41;5.78;;;3.45;;
52838;SDS011;39219;53.678;9.856;2022-08-21T03:22:09;5.82;;;3.40;;
52838;SDS011;39219;53.678;9.856;2022-08-21T03:24:35;5.20;;;3.40;;
52838;SDS011;39219;53.678;9.856;2022-08-21T03:27:02;5.82;;;3.60;;
52838;SDS011;39219;53.678;9.856;2022-08-21T03:29:29;6.97;;;3.67;;
52838;SDS011;39219;53.678;9.856;2022-08-21T03:31:56;7.03;;;3.58;;
52838;SDS011;39219;53.678;9.856;2022-08-21T03:34:22;4.78;;;3.53;;
52838;SDS011;39219;53.678;9.856;2022-08-21T03:36:48;7.10;;;3.60;;
52838;SDS011;39219;53.678;9.856;2022-08-21T03:39:16;6.30;;;3.40;;
52838;SDS011;39219;53.678;9.856;2022-08-21T03:41:43;5.97;;;3.25;;
52838;SDS011;39219;53.678;9.856;2022-08-21T03:44:10;6.22;;;3.60;;
52838;SDS011;39219;53.678;9.856;2022-08-21T03:46:36;4.60;;;3.20;;
52838;SDS011;39219;53.678;9.856;2022-08-21T03:49:05;7.50;;;3.03;;
52838;SDS011;39219;53.678;9.856;2022-08-21T03:51:31;6.50;;;3.25;;
52838;SDS011;39219;53.678;9.856;2022-08-21T03:53:58;5.47;;;3.15;;
52838;SDS011;39219;53.678;9.856;2022-08-21T03:56:26;7.78;;;3.10;;
52838;SDS011;39219;53.678;9.856;2022-08-21T03:58:53;4.30;;;3.00;;
52838;SDS011;39219;53.678;9.856;2022-08-21T04:01:20;6.15;;;3.20;;
52838;SDS011;39219;53.678;9.856;2022-08-21T04:03:47;4.07;;;2.95;;
52838;SDS011;39219;53.678;9.856;2022-08-21T04:06:13;5.03;;;2.95;;
52838;SDS011;39219;53.678;9.856;2022-08-21T04:08:40;3.38;;;2.90;;
52838;SDS011;39219;53.678;9.856;2022-08-21T04:11:07;6.43;;;2.85;;
52838;SDS011;39219;53.678;9.856;2022-08-21T04:13:36;2.95;;;2.65;;
52838;SDS011;39219;53.678;9.856;2022-08-21T04:16:03;5.03;;;2.70;;
52838;SDS011;39219;53.678;9.856;2022-08-21T04:18:30;3.97;;;2.80;;
52838;SDS011;39219;53.678;9.856;2022-08-21T04:20:57;4.10;;;2.97;;
52838;SDS011;39219;53.678;9.856;2022-08-21T04:23:25;4.95;;;3.35;;
52838;SDS011;39219;53.678;9.856;2022-08-21T04:25:53;9.10;;;3.30;;
52838;SDS011;39219;53.678;9.856;2022-08-21T04:28:21;6.63;;;3.30;;
52838;SDS011;39219;53.678;9.856;2022-08-21T04:30:51;6.22;;;3.50;;
52838;SDS011;39219;53.678;9.856;2022-08-21T04:33:18;6.78;;;3.40;;
52838;SDS011;39219;53.678;9.856;2022-08-21T04:35:45;6.10;;;3.13;;
52838;SDS011;39219;53.678;9.856;2022-08-21T04:38:11;5.80;;;3.20;;
52838;SDS011;39219;53.678;9.856;2022-08-21T04:40:38;4.70;;;3.15;;
52838;SDS011;39219;53.678;9.856;2022-08-21T04:43:05;3.90;;;2.88;;
52838;SDS011;39219;53.678;9.856;2022-08-21T04:45:33;5.55;;;3.10;;
52838;SDS011;39219;53.678;9.856;2022-08-21T04:48:04;5.18;;;3.53;;
52838;SDS011;39219;53.678;9.856;2022-08-21T04:50:35;7.82;;;3.10;;
52838;SDS011;39219;53.678;9.856;2022-08-21T04:53:04;6.47;;;3.30;;
52838;SDS011;39219;53.678;9.856;2022-08-21T04:55:32;6.22;;;3.58;;
52838;SDS011;39219;53.678;9.856;2022-08-21T04:57:59;7.10;;;3.38;;
52838;SDS011;39219;53.678;9.856;2022-08-21T05:00:27;5.53;;;3.33;;
52838;SDS011;39219;53.678;9.856;2022-08-21T05:02:53;6.13;;;3.50;;
52838;SDS011;39219;53.678;9.856;2022-08-21T05:05:25;5.75;;;3.45;;
52838;SDS011;39219;53.678;9.856;2022-08-21T05:07:54;4.65;;;3.40;;
52838;SDS011;39219;53.678;9.856;2022-08-21T05:10:22;6.10;;;3.60;;
52838;SDS011;39219;53.678;9.856;2022-08-21T05:12:49;6.25;;;3.90;;
52838;SDS011;39219;53.678;9.856;2022-08-21T05:15:15;4.28;;;3.40;;
52838;SDS011;39219;53.678;9.856;2022-08-21T05:17:42;5.68;;;3.60;;
52838;SDS011;39219;53.678;9.856;2022-08-21T05:20:10;6.63;;;3.90;;
52838;SDS011;39219;53.678;9.856;2022-08-21T05:22:39;8.80;;;4.25;;
52838;SDS011;39219;53.678;9.856;2022-08-21T05:25:06;9.60;;;4.07;;
52838;SDS011;39219;53.678;9.856;2022-08-21T05:27:34;9.10;;;4.22;;
52838;SDS011;39219;53.678;9.856;2022-08-21T05:30:02;8.05;;;4.38;;
52838;SDS011;39219;53.678;9.856;2022-08-21T05:32:30;7.45;;;4.25;;
52838;SDS011;39219;53.678;9.856;2022-08-21T05:34:56;6.38;;;4.20;;
52838;SDS011;39219;53.678;9.856;2022-08-21T05:37:22;5.85;;;4.07;;
52838;SDS011;39219;53.678;9.856;2022-08-21T05:39:50;8.20;;;4.25;;
52838;SDS011;39219;53.678;9.856;2022-08-21T05:42:17;6.13;;;3.55;;
52838;SDS011;39219;53.678;9.856;2022-08-21T05:44:44;6.07;;;3.83;;
52838;SDS011;39219;53.678;9.856;2022-08-21T05:47:10;5.78;;;3.70;;
52838;SDS011;39219;53.678;9.856;2022-08-21T05:49:37;6.22;;;3.30;;
52838;SDS011;39219;53.678;9.856;2022-08-21T05:52:03;6.20;;;3.38;;
52838;SDS011;39219;53.678;9.856;2022-08-21T05:54:30;7.88;;;3.90;;
52838;SDS011;39219;53.678;9.856;2022-08-21T05:56:58;5.82;;;3.40;;
52838;SDS011;39219;53.678;9.856;2022-08-21T05:59:24;6.57;;;3.85;;
52838;SDS011;39219;53.678;9.856;2022-08-21T06:01:52;5.20;;;3.47;;
52838;SDS011;39219;53.678;9.856;2022-08-21T06:04:19;6.13;;;3.65;;
52838;SDS011;39219;53.678;9.856;2022-08-21T06:06:45;5.50;;;3.55;;
52838;SDS011;39219;53.678;9.856;2022-08-21T06:09:13;6.03;;;3.78;;
52838;SDS011;39219;53.678;9.856;2022-08-21T06:11:39;4.45;;;3.25;;
52838;SDS011;39219;53.678;9.856;2022-08-21T06:14:07;4.75;;;2.95;;
52838;SDS011;39219;53.678;9.856;2022-08-21T06:16:34;5.50;;;3.25;;
52838;SDS011;39219;53.678;9.856;2022-08-21T06:19:00;4.13;;;2.85;;
52838;SDS011;39219;53.678;9.856;2022-08-21T06:21:27;5.38;;;3.17;;
52838;SDS011;39219;53.678;9.856;2022-08-21T06:23:53;5.07;;;3.15;;
52838;SDS011;39219;53.678;9.856;2022-08-21T06:26:20;5.47;;;2.95;;
52838;SDS011;39219;53.678;9.856;2022-08-21T06:28:47;5.65;;;3.00;;
52838;SDS011;39219;53.678;9.856;2022-08-21T06:31:16;5.72;;;3.17;;
52838;SDS011;39219;53.678;9.856;2022-08-21T06:33:44;6.20;;;3.00;;
52838;SDS011;39219;53.678;9.856;2022-08-21T06:36:11;5.18;;;3.00;;
52838;SDS011;39219;53.678;9.856;2022-08-21T06:38:37;3.97;;;2.80;;
52838;SDS011;39219;53.678;9.856;2022-08-21T06:41:04;4.72;;;2.78;;
52838;SDS011;39219;53.678;9.856;2022-08-21T06:43:31;6.90;;;2.50;;
52838;SDS011;39219;53.678;9.856;2022-08-21T06:45:57;5.20;;;2.60;;
52838;SDS011;39219;53.678;9.856;2022-08-21T06:48:25;8.45;;;2.65;;
52838;SDS011;39219;53.678;9.856;2022-08-21T06:50:52;5.60;;;2.40;;
52838;SDS011;39219;53.678;9.856;2022-08-21T06:53:19;4.82;;;2.50;;
52838;SDS011;39219;53.678;9.856;2022-08-21T06:55:46;5.75;;;2.50;;
52838;SDS011;39219;53.678;9.856;2022-08-21T06:58:14;5.97;;;2.42;;
52838;SDS011;39219;53.678;9.856;2022-08-21T07:00:41;4.30;;;2.30;;
52838;SDS011;39219;53.678;9.856;2022-08-21T07:03:15;5.93;;;2.20;;
52838;SDS011;39219;53.678;9.856;2022-08-21T07:05:44;4.80;;;2.13;;
52838;SDS011;39219;53.678;9.856;2022-08-21T07:08:11;3.83;;;2.10;;
52838;SDS011;39219;53.678;9.856;2022-08-21T07:10:37;3.45;;;2.17;;
52838;SDS011;39219;53.678;9.856;2022-08-21T07:13:04;6.75;;;2.15;;
52838;SDS011;39219;53.678;9.856;2022-08-21T07:15:30;5.43;;;2.10;;
52838;SDS011;39219;53.678;9.856;2022-08-21T07:17:57;5.05;;;1.88;;
52838;SDS011;39219;53.678;9.856;2022-08-21T07:20:24;5.03;;;1.75;;
52838;SDS011;39219;53.678;9.856;2022-08-21T07:22:53;4.22;;;1.98;;
52838;SDS011;39219;53.678;9.856;2022-08-21T07:25:20;4.88;;;2.13;;
52838;SDS011;39219;53.678;9.856;2022-08-21T07:27:47;5.43;;;2.25;;
52838;SDS011;39219;53.678;9.856;2022-08-21T07:30:13;7.28;;;2.33;;
52838;SDS011;39219;53.678;9.856;2022-08-21T07:32:39;4.55;;;2.00;;
52838;SDS011;39219;53.678;9.856;2022-08-21T07:35:06;5.40;;;1.95;;
52838;SDS011;39219;53.678;9.856;2022-08-21T07:37:33;5.55;;;2.20;;
52838;SDS011;39219;53.678;9.856;2022-08-21T07:40:01;5.65;;;1.83;;
52838;SDS011;39219;53.678;9.856;2022-08-21T07:42:29;6.63;;;2.10;;
52838;SDS011;39219;53.678;9.856;2022-08-21T07:44:55;5.15;;;1.88;;
52838;SDS011;39219;53.678;9.856;2022-08-21T07:47:22;4.00;;;2.10;;
52838;SDS011;39219;53.678;9.856;2022-08-21T07:49:49;4.97;;;1.90;;
52838;SDS011;39219;53.678;9.856;2022-08-21T07:52:15;5.75;;;2.20;;
52838;SDS011;39219;53.678;9.856;2022-08-21T07:54:42;3.95;;;2.00;;
52838;SDS011;39219;53.678;9.856;2022-08-21T07:57:09;6.55;;;2.45;;
52838;SDS011;39219;53.678;9.856;2022-08-21T07:59:36;5.28;;;2.03;;
52838;SDS011;39219;53.678;9.856;2022-08-21T08:02:02;6.25;;;2.00;;
52838;SDS011;39219;53.678;9.856;2022-08-21T08:04:29;5.78;;;1.90;;
52838;SDS011;39219;53.678;9.856;2022-08-21T08:06:56;6.93;;;1.98;;
52838;SDS011;39219;53.678;9.856;2022-08-21T08:09:22;3.95;;;1.88;;
52838;SDS011;39219;53.678;9.856;2022-08-21T08:11:48;5.60;;;2.28;;
52838;SDS011;39219;53.678;9.856;2022-08-21T08:14:16;6.72;;;2.30;;
52838;SDS011;39219;53.678;9.856;2022-08-21T08:16:43;8.93;;;2.45;;
52838;SDS011;39219;53.678;9.856;2022-08-21T08:19:10;5.95;;;1.88;;
52838;SDS011;39219;53.678;9.856;2022-08-21T08:21:36;6.22;;;2.30;;
52838;SDS011;39219;53.678;9.856;2022-08-21T08:24:03;5.72;;;2.20;;
52838;SDS011;39219;53.678;9.856;2022-08-21T08:26:30;5.57;;;2.13;;
52838;SDS011;39219;53.678;9.856;2022-08-21T08:28:56;5.78;;;2.13;;
52838;SDS011;39219;53.678;9.856;2022-08-21T08:31:24;4.13;;;2.00;;
52838;SDS011;39219;53.678;9.856;2022-08-21T08:33:51;6.55;;;2.20;;
52838;SDS011;39219;53.678;9.856;2022-08-21T08:36:17;6.75;;;2.33;;
52838;SDS011;39219;53.678;9.856;2022-08-21T08:38:45;6.20;;;2.38;;
52838;SDS011;39219;53.678;9.856;2022-08-21T08:41:13;8.30;;;2.40;;
52838;SDS011;39219;53.678;9.856;2022-08-21T08:43:45;7.75;;;2.15;;
52838;SDS011;39219;53.678;9.856;2022-08-21T08:46:17;5.00;;;2.17;;
52838;SDS011;39219;53.678;9.856;2022-08-21T08:48:52;5.97;;;1.92;;
52838;SDS011;39219;53.678;9.856;2022-08-21T08:51:25;9.55;;;2.17;;
52838;SDS011;39219;53.678;9.856;2022-08-21T08:53:59;6.75;;;2.33;;
52838;SDS011;39219;53.678;9.856;2022-08-21T08:56:29;6.57;;;2.35;;
52838;SDS011;39219;53.678;9.856;2022-08-21T08:58:59;7.13;;;2.25;;
52838;SDS011;39219;53.678;9.856;2022-08-21T09:01:33;9.50;;;2.13;;
52838;SDS011;39219;53.678;9.856;2022-08-21T09:04:01;5.65;;;2.58;;
52838;SDS011;39219;53.678;9.856;2022-08-21T09:06:32;7.30;;;2.40;;
52838;SDS011;39219;53.678;9.856;2022-08-21T09:09:07;10.50;;;2.47;;
52838;SDS011;39219;53.678;9.856;2022-08-21T09:11:45;7.72;;;2.70;;
52838;SDS011;39219;53.678;9.856;2022-08-21T09:14:22;8.65;;;2.75;;
52838;SDS011;39219;53.678;9.856;2022-08-21T09:16:53;8.50;;;2.55;;
52838;SDS011;39219;53.678;9.856;2022-08-21T09:19:31;7.07;;;2.45;;
52838;SDS011;39219;53.678;9.856;2022-08-21T09:22:08;6.70;;;2.70;;
52838;SDS011;39219;53.678;9.856;2022-08-21T09:24:47;5.90;;;2.60;;
52838;SDS011;39219;53.678;9.856;2022-08-21T09:27:20;8.63;;;2.47;;
52838;SDS011;39219;53.678;9.856;2022-08-21T09:29:47;6.60;;;2.63;;
52838;SDS011;39219;53.678;9.856;2022-08-21T09:32:17;7.45;;;2.95;;
52838;SDS011;39219;53.678;9.856;2022-08-21T09:34:59;9.93;;;2.55;;
52838;SDS011;39219;53.678;9.856;2022-08-21T09:37:26;6.65;;;2.42;;
52838;SDS011;39219;53.678;9.856;2022-08-21T09:39:55;7.78;;;2.60;;
52838;SDS011;39219;53.678;9.856;2022-08-21T09:42:24;6.60;;;2.53;;
52838;SDS011;39219;53.678;9.856;2022-08-21T09:45:05;7.05;;;2.40;;
52838;SDS011;39219;53.678;9.856;2022-08-21T09:47:36;8.75;;;2.80;;
52838;SDS011;39219;53.678;9.856;2022-08-21T09:50:12;8.90;;;3.10;;
52838;SDS011;39219;53.678;9.856;2022-08-21T09:52:42;7.20;;;2.80;;
52838;SDS011;39219;53.678;9.856;2022-08-21T09:55:15;7.80;;;2.85;;
52838;SDS011;39219;53.678;9.856;2022-08-21T09:57:58;8.75;;;2.92;;
52838;SDS011;39219;53.678;9.856;2022-08-21T10:00:28;4.82;;;2.40;;
52838;SDS011;39219;53.678;9.856;2022-08-21T10:03:07;8.10;;;2.88;;
52838;SDS011;39219;53.678;9.856;2022-08-21T10:05:36;6.22;;;2.67;;
52838;SDS011;39219;53.678;9.856;2022-08-21T10:08:04;4.78;;;2.38;;
52838;SDS011;39219;53.678;9.856;2022-08-21T10:10:31;7.60;;;2.55;;
52838;SDS011;39219;53.678;9.856;2022-08-21T10:13:03;6.97;;;2.40;;
52838;SDS011;39219;53.678;9.856;2022-08-21T10:15:43;6.25;;;2.78;;
52838;SDS011;39219;53.678;9.856;2022-08-21T10:18:19;6.68;;;2.55;;
52838;SDS011;39219;53.678;9.856;2022-08-21T10:20:54;7.85;;;2.60;;
52838;SDS011;39219;53.678;9.856;2022-08-21T10:23:32;5.45;;;2.38;;
52838;SDS011;39219;53.678;9.856;2022-08-21T10:26:10;5.50;;;2.67;;
52838;SDS011;39219;53.678;9.856;2022-08-21T10:28:47;7.78;;;2.65;;
52838;SDS011;39219;53.678;9.856;2022-08-21T10:33:56;5.97;;;2.17;;
52838;SDS011;39219;53.678;9.856;2022-08-21T10:36:37;6.40;;;2.40;;
52838;SDS011;39219;53.678;9.856;2022-08-21T10:39:13;3.92;;;2.17;;
52838;SDS011;39219;53.678;9.856;2022-08-21T10:41:50;4.55;;;2.25;;
52838;SDS011;39219;53.678;9.856;2022-08-21T10:44:30;5.82;;;2.17;;
52838;SDS011;39219;53.678;9.856;2022-08-21T10:47:04;10.45;;;2.63;;
52838;SDS011;39219;53.678;9.856;2022-08-21T10:49:36;6.60;;;2.30;;
52838;SDS011;39219;53.678;9.856;2022-08-21T10:52:15;6.63;;;2.25;;
52838;SDS011;39219;53.678;9.856;2022-08-21T10:54:52;7.15;;;2.08;;
52838;SDS011;39219;53.678;9.856;2022-08-21T10:57:23;4.85;;;1.98;;
52838;SDS011;39219;53.678;9.856;2022-08-21T10:59:57;3.80;;;2.17;;
52838;SDS011;39219;53.678;9.856;2022-08-21T11:02:29;3.50;;;2.00;;
52838;SDS011;39219;53.678;9.856;2022-08-21T11:04:59;3.85;;;2.10;;
52838;SDS011;39219;53.678;9.856;2022-08-21T11:07:32;6.15;;;2.05;;
52838;SDS011;39219;53.678;9.856;2022-08-21T11:10:03;5.57;;;2.20;;
52838;SDS011;39219;53.678;9.856;2022-08-21T11:12:38;4.38;;;1.90;;
52838;SDS011;39219;53.678;9.856;2022-08-21T11:15:12;4.45;;;2.05;;
52838;SDS011;39219;53.678;9.856;2022-08-21T11:17:50;4.95;;;2.13;;
52838;SDS011;39219;53.678;9.856;2022-08-21T11:20:26;4.43;;;2.08;;
52838;SDS011;39219;53.678;9.856;2022-08-21T11:23:02;5.80;;;2.33;;
52838;SDS011;39219;53.678;9.856;2022-08-21T11:25:35;5.05;;;2.20;;
52838;SDS011;39219;53.678;9.856;2022-08-21T11:28:05;5.65;;;2.03;;
52838;SDS011;39219;53.678;9.856;2022-08-21T11:30:39;5.07;;;2.25;;
52838;SDS011;39219;53.678;9.856;2022-08-21T11:33:19;5.20;;;2.38;;
52838;SDS011;39219;53.678;9.856;2022-08-21T11:35:58;3.92;;;1.90;;
52838;SDS011;39219;53.678;9.856;2022-08-21T11:38:35;5.20;;;2.17;;
52838;SDS011;39219;53.678;9.856;2022-08-21T11:43:52;4.57;;;2.10;;
52838;SDS011;39219;53.678;9.856;2022-08-21T11:46:28;4.38;;;2.15;;
52838;SDS011;39219;53.678;9.856;2022-08-21T11:49:12;4.82;;;1.95;;
52838;SDS011;39219;53.678;9.856;2022-08-21T11:51:57;4.63;;;1.95;;
52838;SDS011;39219;53.678;9.856;2022-08-21T11:54:35;2.42;;;1.60;;
52838;SDS011;39219;53.678;9.856;2022-08-21T11:57:11;4.00;;;1.90;;
52838;SDS011;39219;53.678;9.856;2022-08-21T11:59:45;4.00;;;1.67;;
52838;SDS011;39219;53.678;9.856;2022-08-21T12:02:17;3.05;;;1.60;;
52838;SDS011;39219;53.678;9.856;2022-08-21T12:04:46;2.25;;;1.55;;
52838;SDS011;39219;53.678;9.856;2022-08-21T12:07:17;4.50;;;1.63;;
52838;SDS011;39219;53.678;9.856;2022-08-21T12:09:57;3.30;;;1.60;;
52838;SDS011;39219;53.678;9.856;2022-08-21T12:12:26;3.00;;;1.73;;
52838;SDS011;39219;53.678;9.856;2022-08-21T12:17:51;3.75;;;1.73;;
52838;SDS011;39219;53.678;9.856;2022-08-21T12:20:33;5.38;;;1.85;;
52838;SDS011;39219;53.678;9.856;2022-08-21T12:23:04;3.65;;;1.83;;
52838;SDS011;39219;53.678;9.856;2022-08-21T12:25:42;4.22;;;1.90;;
52838;SDS011;39219;53.678;9.856;2022-08-21T12:28:12;2.00;;;1.40;;
52838;SDS011;39219;53.678;9.856;2022-08-21T12:30:42;3.97;;;1.60;;
52838;SDS011;39219;53.678;9.856;2022-08-21T12:33:21;4.75;;;1.52;;
52838;SDS011;39219;53.678;9.856;2022-08-21T12:35:50;3.95;;;1.60;;
52838;SDS011;39219;53.678;9.856;2022-08-21T12:38:20;3.67;;;1.60;;
52838;SDS011;39219;53.678;9.856;2022-08-21T12:40:52;4.82;;;1.70;;
52838;SDS011;39219;53.678;9.856;2022-08-21T12:43:24;4.78;;;1.65;;
52838;SDS011;39219;53.678;9.856;2022-08-21T12:45:54;3.00;;;1.48;;
52838;SDS011;39219;53.678;9.856;2022-08-21T12:48:22;4.88;;;1.90;;
52838;SDS011;39219;53.678;9.856;2022-08-21T12:50:53;4.13;;;1.50;;
52838;SDS011;39219;53.678;9.856;2022-08-21T12:53:24;2.58;;;1.27;;
52838;SDS011;39219;53.678;9.856;2022-08-21T12:55:56;3.45;;;1.70;;
52838;SDS011;39219;53.678;9.856;2022-08-21T12:58:28;2.22;;;1.13;;
52838;SDS011;39219;53.678;9.856;2022-08-21T13:00:56;2.83;;;1.30;;
52838;SDS011;39219;53.678;9.856;2022-08-21T13:03:27;3.90;;;1.45;;
52838;SDS011;39219;53.678;9.856;2022-08-21T13:05:54;4.10;;;1.52;;
52838;SDS011;39219;53.678;9.856;2022-08-21T13:08:21;2.13;;;1.50;;
52838;SDS011;39219;53.678;9.856;2022-08-21T13:10:57;3.15;;;1.40;;
52838;SDS011;39219;53.678;9.856;2022-08-21T13:13:27;2.13;;;1.30;;
52838;SDS011;39219;53.678;9.856;2022-08-21T13:15:57;3.90;;;1.42;;
52838;SDS011;39219;53.678;9.856;2022-08-21T13:18:26;3.08;;;1.58;;
52838;SDS011;39219;53.678;9.856;2022-08-21T13:21:02;3.95;;;1.52;;
52838;SDS011;39219;53.678;9.856;2022-08-21T13:23:31;3.42;;;1.67;;
52838;SDS011;39219;53.678;9.856;2022-08-21T13:25:59;2.75;;;1.40;;
52838;SDS011;39219;53.678;9.856;2022-08-21T13:28:32;2.47;;;1.20;;
52838;SDS011;39219;53.678;9.856;2022-08-21T13:31:01;2.83;;;1.20;;
52838;SDS011;39219;53.678;9.856;2022-08-21T13:33:28;3.35;;;1.52;;
52838;SDS011;39219;53.678;9.856;2022-08-21T13:35:57;2.40;;;1.40;;
52838;SDS011;39219;53.678;9.856;2022-08-21T13:38:30;3.35;;;1.30;;
52838;SDS011;39219;53.678;9.856;2022-08-21T13:41:01;3.38;;;1.50;;
52838;SDS011;39219;53.678;9.856;2022-08-21T13:43:32;3.83;;;1.63;;
52838;SDS011;39219;53.678;9.856;2022-08-21T13:46:00;2.88;;;1.25;;
52838;SDS011;39219;53.678;9.856;2022-08-21T13:48:29;2.70;;;1.42;;
52838;SDS011;39219;53.678;9.856;2022-08-21T13:50:59;4.38;;;1.45;;
52838;SDS011;39219;53.678;9.856;2022-08-21T13:53:28;7.22;;;1.52;;
52838;SDS011;39219;53.678;9.856;2022-08-21T13:55:56;3.58;;;1.50;;
52838;SDS011;39219;53.678;9.856;2022-08-21T13:58:26;2.72;;;1.27;;
52838;SDS011;39219;53.678;9.856;2022-08-21T14:00:53;3.38;;;1.30;;
52838;SDS011;39219;53.678;9.856;2022-08-21T14:03:31;3.50;;;1.25;;
52838;SDS011;39219;53.678;9.856;2022-08-21T14:06:00;5.70;;;1.52;;
52838;SDS011;39219;53.678;9.856;2022-08-21T14:08:28;2.58;;;1.58;;
52838;SDS011;39219;53.678;9.856;2022-08-21T14:10:58;4.93;;;1.35;;
52838;SDS011;39219;53.678;9.856;2022-08-21T14:13:37;5.03;;;1.70;;
52838;SDS011;39219;53.678;9.856;2022-08-21T14:16:14;3.75;;;1.40;;
52838;SDS011;39219;53.678;9.856;2022-08-21T14:18:44;3.65;;;1.38;;
52838;SDS011;39219;53.678;9.856;2022-08-21T14:21:23;2.78;;;1.40;;
52838;SDS011;39219;53.678;9.856;2022-08-21T14:23:59;3.10;;;1.25;;
52838;SDS011;39219;53.678;9.856;2022-08-21T14:28:59;4.80;;;1.73;;
52838;SDS011;39219;53.678;9.856;2022-08-21T14:31:28;3.72;;;1.48;;
52838;SDS011;39219;53.678;9.856;2022-08-21T14:33:57;3.45;;;1.50;;
52838;SDS011;39219;53.678;9.856;2022-08-21T14:36:25;6.00;;;1.73;;
52838;SDS011;39219;53.678;9.856;2022-08-21T14:38:52;4.00;;;1.40;;
52838;SDS011;39219;53.678;9.856;2022-08-21T14:41:19;3.08;;;1.42;;
52838;SDS011;39219;53.678;9.856;2022-08-21T14:43:49;3.25;;;1.48;;
52838;SDS011;39219;53.678;9.856;2022-08-21T14:46:20;1.98;;;1.17;;
52838;SDS011;39219;53.678;9.856;2022-08-21T14:48:49;1.52;;;1.23;;
52838;SDS011;39219;53.678;9.856;2022-08-21T14:51:15;3.25;;;1.20;;
52838;SDS011;39219;53.678;9.856;2022-08-21T14:53:43;4.10;;;1.45;;
52838;SDS011;39219;53.678;9.856;2022-08-21T14:56:09;1.95;;;1.02;;
52838;SDS011;39219;53.678;9.856;2022-08-21T14:58:39;7.93;;;1.95;;
52838;SDS011;39219;53.678;9.856;2022-08-21T15:01:07;3.72;;;1.35;;
52838;SDS011;39219;53.678;9.856;2022-08-21T15:03:37;3.03;;;1.38;;
52838;SDS011;39219;53.678;9.856;2022-08-21T15:06:04;1.77;;;1.23;;
52838;SDS011;39219;53.678;9.856;2022-08-21T15:08:32;6.55;;;1.58;;
52838;SDS011;39219;53.678;9.856;2022-08-21T15:10:59;6.00;;;1.75;;